Time;durP1;ratioP1;P1;durP2;ratioP2;P2;SDS_P1;SDS_P2;PMS_P1;PMS_P2;Temp;Humidity;BMP_temperature;BMP_pressure;BME280_temperature;BME280_humidity;BME280_pressure;Samples;Min_cycle;Max_cycle;Signal;HPM_P1;HPM_P2
2021/05/08 00:02:41;;;;;;;6.07;2.60;;;;;;;21.19;96.25;100236.69;5055289;28;20040;-74
2021/05/08 00:05:27;;;;;;;6.53;2.83;;;;;;;21.10;95.92;100245.28;5055681;28;20104;-75
2021/05/08 00:08:14;;;;;;;5.78;2.50;;;;;;;21.24;94.54;100245.22;5054239;28;20040;-75
2021/05/08 00:10:59;;;;;;;7.15;2.70;;;;;;;21.04;94.14;100253.69;5033236;28;20049;-74
2021/05/08 00:13:45;;;;;;;3.95;2.58;;;;;;;21.28;92.52;100249.38;5035705;28;20017;-75
2021/05/08 00:16:31;;;;;;;6.07;2.85;;;;;;;21.22;89.79;100251.59;5034625;28;20025;-74
2021/05/08 00:19:17;;;;;;;6.32;2.50;;;;;;;21.33;89.36;100254.38;5035692;28;20025;-75
2021/05/08 00:22:03;;;;;;;4.72;2.30;;;;;;;21.27;87.31;100247.66;5034454;28;20108;-75
2021/05/08 00:24:49;;;;;;;4.22;2.50;;;;;;;21.38;84.65;100252.25;5019585;28;20024;-75
2021/05/08 00:27:35;;;;;;;4.05;2.28;;;;;;;21.57;82.15;100258.00;5020440;28;20037;-75
2021/05/08 00:30:21;;;;;;;4.75;2.25;;;;;;;21.49;79.72;100249.69;5034348;28;20029;-75
2021/05/08 00:33:07;;;;;;;3.75;2.25;;;;;;;21.60;77.54;100249.78;5034864;28;20035;-75
2021/05/08 00:35:52;;;;;;;7.35;2.33;;;;;;;21.38;76.04;100250.44;5034109;28;20131;-75
2021/05/08 00:38:38;;;;;;;5.47;2.30;;;;;;;21.60;72.54;100266.66;5035587;28;20068;-75
2021/05/08 00:41:24;;;;;;;4.90;2.30;;;;;;;21.57;71.32;100263.34;5034073;28;20338;-75
2021/05/08 00:44:10;;;;;;;5.20;2.30;;;;;;;21.49;70.22;100268.34;5034816;28;20021;-75
2021/05/08 00:46:56;;;;;;;7.88;2.20;;;;;;;21.59;68.55;100272.97;5035576;28;20032;-75
2021/05/08 00:49:44;;;;;;;5.15;2.47;;;;;;;21.52;67.61;100268.13;5039346;28;20030;-75
2021/05/08 00:52:30;;;;;;;11.65;2.47;;;;;;;21.70;66.67;100277.53;5038989;28;20041;-74
2021/05/08 00:55:16;;;;;;;4.82;2.30;;;;;;;21.72;64.92;100289.84;5039085;28;20061;-74
2021/05/08 00:58:03;;;;;;;5.78;2.47;;;;;;;21.70;64.32;100291.75;5038396;28;20040;-73
2021/05/08 01:00:54;;;;;;;2.88;2.25;;;;;;;21.50;64.93;100294.91;5023573;28;20117;-74
2021/05/08 01:03:42;;;;;;;6.15;2.30;;;;;;;21.54;64.92;100300.91;5023078;28;20056;-74
2021/05/08 01:06:28;;;;;;;4.47;2.10;;;;;;;21.67;64.97;100307.09;5038632;28;20022;-73
2021/05/08 01:09:15;;;;;;;4.57;1.92;;;;;;;21.46;66.02;100322.72;5038684;28;20025;-74
2021/05/08 01:12:01;;;;;;;5.97;2.30;;;;;;;21.17;67.59;100331.84;5054527;28;20059;-73
2021/05/08 01:14:47;;;;;;;5.70;2.17;;;;;;;21.20;68.94;100339.63;5044203;28;20069;-74
2021/05/08 01:17:33;;;;;;;7.70;2.20;;;;;;;21.11;71.48;100342.94;5058720;28;20037;-73
2021/05/08 01:20:20;;;;;;;14.88;2.65;;;;;;;20.56;77.77;100351.88;5059294;28;20116;-74
2021/05/08 01:23:06;;;;;;;5.50;2.60;;;;;;;20.46;80.15;100362.28;5057991;28;20036;-74
2021/05/08 01:25:52;;;;;;;6.68;2.40;;;;;;;20.50;81.24;100368.28;5059294;28;20025;-74
2021/05/08 01:28:38;;;;;;;6.10;2.10;;;;;;;20.31;83.12;100367.72;5058280;28;20125;-74
2021/05/08 01:31:23;;;;;;;6.65;2.50;;;;;;;19.85;88.89;100374.97;5059181;28;20025;-73
2021/05/08 01:34:09;;;;;;;4.65;2.50;;;;;;;20.09;89.10;100381.47;5057940;28;20033;-72
2021/05/08 01:36:55;;;;;;;6.65;2.60;;;;;;;20.00;90.16;100392.66;5043412;28;20025;-73
2021/05/08 01:39:40;;;;;;;8.65;2.53;;;;;;;19.60;94.74;100403.16;5058585;28;20029;-74
2021/05/08 01:42:26;;;;;;;6.65;2.60;;;;;;;19.49;98.51;100395.78;5043190;28;20473;-73
2021/05/08 01:45:15;;;;;;;6.50;2.63;;;;;;;19.55;100.00;100397.22;5057582;28;20358;-74
2021/05/08 01:48:03;;;;;;;5.07;2.72;;;;;;;19.38;100.00;100418.63;5042994;28;20044;-74
2021/05/08 01:50:49;;;;;;;5.30;2.85;;;;;;;19.35;100.00;100421.44;5043376;28;20108;-75
2021/05/08 01:53:35;;;;;;;7.65;2.65;;;;;;;19.03;100.00;100424.13;5057279;28;20388;-74
2021/05/08 01:56:21;;;;;;;6.97;2.92;;;;;;;18.82;100.00;100438.59;5043471;28;20052;-74
2021/05/08 01:59:07;;;;;;;8.00;3.35;;;;;;;18.69;100.00;100442.84;5043392;28;20025;-74
2021/05/08 02:01:52;;;;;;;6.72;3.20;;;;;;;18.57;100.00;100450.66;5058558;28;20041;-75
2021/05/08 02:04:39;;;;;;;9.32;3.30;;;;;;;18.54;100.00;100458.78;5057386;28;20032;-75
2021/05/08 02:07:25;;;;;;;8.43;2.92;;;;;;;18.93;100.00;100470.72;5057866;28;20525;-75
2021/05/08 02:10:13;;;;;;;6.68;3.45;;;;;;;18.94;100.00;100479.53;5057239;28;20365;-75
2021/05/08 02:13:04;;;;;;;6.63;3.50;;;;;;;18.93;100.00;100491.13;5056857;28;20033;-75
2021/05/08 02:15:50;;;;;;;10.20;3.80;;;;;;;18.82;100.00;100496.97;5058146;28;20036;-73
2021/05/08 02:18:36;;;;;;;10.02;3.47;;;;;;;18.48;100.00;100506.84;5056436;28;20048;-73
2021/05/08 02:21:21;;;;;;;9.18;3.55;;;;;;;18.77;100.00;100522.09;5057663;28;20040;-73
2021/05/08 02:24:07;;;;;;;8.57;3.90;;;;;;;18.60;100.00;100522.97;5056821;28;20032;-74
2021/05/08 02:26:53;;;;;;;6.40;3.80;;;;;;;18.37;100.00;100527.78;5057529;28;20044;-74
2021/05/08 02:29:39;;;;;;;11.57;3.83;;;;;;;18.47;100.00;100534.31;5042719;28;20473;-74
2021/05/08 02:32:25;;;;;;;6.57;3.75;;;;;;;18.45;100.00;100536.22;5057517;28;20036;-73
2021/05/08 02:35:12;;;;;;;6.47;4.07;;;;;;;18.77;100.00;100530.06;5041366;28;20091;-73
2021/05/08 02:37:58;;;;;;;8.52;4.28;;;;;;;18.83;100.00;100548.28;5056935;28;20033;-74
2021/05/08 02:40:44;;;;;;;9.02;4.38;;;;;;;18.53;100.00;100550.78;5056804;28;20025;-74
2021/05/08 02:43:30;;;;;;;8.38;4.18;;;;;;;18.57;100.00;100547.00;5056491;28;20098;-74
2021/05/08 02:46:15;;;;;;;9.35;4.40;;;;;;;18.61;100.00;100555.69;5057302;28;20029;-74
2021/05/08 02:49:01;;;;;;;11.45;4.50;;;;;;;18.34;100.00;100567.72;5057544;28;20017;-75
2021/05/08 02:51:47;;;;;;;7.95;4.40;;;;;;;18.42;100.00;100562.88;5042309;28;20029;-74
2021/05/08 02:54:33;;;;;;;10.85;4.95;;;;;;;18.42;100.00;100587.63;5057071;28;20357;-75
2021/05/08 02:57:18;;;;;;;9.35;4.80;;;;;;;17.92;100.00;100585.78;5057597;28;20052;-74
2021/05/08 03:00:10;;;;;;;8.98;4.47;;;;;;;17.99;100.00;100587.19;5056329;28;20453;-75
2021/05/08 03:02:56;;;;;;;7.47;4.85;;;;;;;17.95;100.00;100590.91;5056638;28;20036;-74
2021/05/08 03:05:41;;;;;;;13.73;5.30;;;;;;;17.89;100.00;100592.06;5056550;28;20043;-74
2021/05/08 03:08:27;;;;;;;18.00;5.63;;;;;;;17.63;100.00;100604.88;5056746;28;20060;-74
2021/05/08 03:11:13;;;;;;;11.68;5.10;;;;;;;17.53;100.00;100606.25;5056413;28;20077;-74
2021/05/08 03:13:59;;;;;;;11.60;5.60;;;;;;;17.34;100.00;100608.00;5057265;28;20021;-74
2021/05/08 03:16:44;;;;;;;12.63;5.38;;;;;;;17.29;100.00;100626.78;5056035;28;20376;-74
2021/05/08 03:19:30;;;;;;;420.40;25.33;;;;;;;17.12;100.00;100613.44;5057299;28;20025;-74
2021/05/08 03:22:16;;;;;;;36.78;4.45;;;;;;;16.91;100.00;100634.72;5054904;28;20379;-74
2021/05/08 03:25:02;;;;;;;16.48;3.30;;;;;;;16.83;100.00;100643.00;5056626;28;20025;-74
2021/05/08 03:27:48;;;;;;;12.93;2.70;;;;;;;16.59;100.00;100649.38;5055790;28;20422;-74
2021/05/08 03:30:33;;;;;;;9.27;2.53;;;;;;;16.57;100.00;100666.22;5054591;28;20112;-74
2021/05/08 03:33:19;;;;;;;33.13;3.70;;;;;;;16.72;100.00;100679.66;5055308;28;20060;-75
2021/05/08 03:36:05;;;;;;;11.68;2.40;;;;;;;16.37;100.00;100695.25;5056109;28;20025;-75
2021/05/08 03:38:51;;;;;;;7.80;2.28;;;;;;;16.32;100.00;100710.47;5056038;28;20539;-75
2021/05/08 03:41:37;;;;;;;6.30;2.00;;;;;;;16.15;100.00;100692.63;5056118;28;20040;-75
2021/05/08 03:44:23;;;;;;;5.80;1.40;;;;;;;16.30;100.00;100710.53;5056436;28;20496;-75
2021/05/08 03:47:09;;;;;;;11.85;1.40;;;;;;;16.19;100.00;100714.53;5055827;28;20144;-75
2021/05/08 03:49:55;;;;;;;7.10;1.13;;;;;;;16.10;100.00;100717.53;5042318;28;20041;-75
2021/05/08 03:52:41;;;;;;;2.17;1.00;;;;;;;16.19;100.00;100725.09;5055618;28;20420;-75
2021/05/08 03:55:26;;;;;;;2.63;1.23;;;;;;;16.24;100.00;100731.06;5055287;28;20033;-75
2021/05/08 03:58:12;;;;;;;7.30;1.20;;;;;;;16.11;100.00;100746.53;5056941;28;20475;-74
2021/05/08 04:00:58;;;;;;;3.17;0.75;;;;;;;15.99;100.00;100749.66;5041042;28;20134;-74
2021/05/08 04:03:44;;;;;;;4.75;1.05;;;;;;;15.96;100.00;100760.38;5041977;28;20143;-74
2021/05/08 04:06:30;;;;;;;6.45;0.90;;;;;;;16.04;100.00;100782.06;5054975;28;20490;-75
2021/05/08 04:09:16;;;;;;;3.75;1.00;;;;;;;16.32;100.00;100787.97;5055745;28;20029;-75
2021/05/08 04:12:01;;;;;;;3.85;0.90;;;;;;;16.31;100.00;100806.56;5040701;28;20056;-73
2021/05/08 04:14:47;;;;;;;4.03;0.98;;;;;;;15.80;100.00;100822.66;5055464;28;20032;-73
2021/05/08 04:17:33;;;;;;;5.18;0.80;;;;;;;15.99;100.00;100830.75;5054770;28;20468;-74
2021/05/08 04:20:19;;;;;;;3.67;0.80;;;;;;;16.04;100.00;100837.56;5054549;28;20035;-74
2021/05/08 04:23:05;;;;;;;3.90;0.88;;;;;;;16.07;100.00;100853.31;5053070;28;20368;-74
2021/05/08 04:25:51;;;;;;;5.30;0.80;;;;;;;15.96;100.00;100860.78;5039388;28;20457;-75
2021/05/08 04:28:36;;;;;;;5.85;1.05;;;;;;;15.56;100.00;100867.56;5053737;28;20028;-74
2021/05/08 04:31:22;;;;;;;7.50;0.90;;;;;;;15.74;100.00;100875.69;5040030;28;20107;-74
2021/05/08 04:34:08;;;;;;;4.90;0.80;;;;;;;16.09;100.00;100879.69;5039168;28;20032;-74
2021/05/08 04:36:54;;;;;;;7.93;0.85;;;;;;;16.03;100.00;100874.63;5053047;28;20036;-74
2021/05/08 04:39:39;;;;;;;4.38;0.98;;;;;;;16.17;100.00;100881.13;5039219;28;20036;-75
2021/05/08 04:42:25;;;;;;;3.00;0.70;;;;;;;16.24;100.00;100881.75;5038988;28;20098;-75
2021/05/08 04:45:11;;;;;;;6.78;0.80;;;;;;;16.37;100.00;100890.94;5055045;28;20037;-75
2021/05/08 04:47:58;;;;;;;6.88;1.05;;;;;;;16.10;100.00;100892.84;5054504;28;20031;-75
2021/05/08 04:50:43;;;;;;;8.90;1.42;;;;;;;16.03;100.00;100893.13;5039543;28;20025;-76
2021/05/08 04:53:30;;;;;;;2.13;0.45;;;;;;;16.25;100.00;100908.16;5052539;28;20029;-75
2021/05/08 04:56:16;;;;;;;6.32;0.75;;;;;;;16.13;100.00;100916.53;5055263;28;20025;-75
2021/05/08 04:59:02;;;;;;;3.85;0.50;;;;;;;16.68;100.00;100918.81;5054237;28;20036;-74
2021/05/08 05:01:48;;;;;;;4.63;0.55;;;;;;;16.07;100.00;100918.53;5039685;28;20118;-74
2021/05/08 05:04:34;;;;;;;4.68;0.60;;;;;;;16.20;100.00;100919.81;5038955;28;20025;-74
2021/05/08 05:07:19;;;;;;;4.70;0.68;;;;;;;16.42;100.00;100923.38;5052823;28;20029;-74
2021/05/08 05:10:06;;;;;;;3.58;0.60;;;;;;;15.80;100.00;100935.38;5038959;28;20036;-75
2021/05/08 05:12:51;;;;;;;4.00;0.55;;;;;;;16.32;100.00;100941.34;5040499;28;20035;-74
2021/05/08 05:15:37;;;;;;;1.95;0.63;;;;;;;16.23;100.00;100939.03;5053962;28;20473;-75
2021/05/08 05:18:23;;;;;;;2.05;0.57;;;;;;;16.31;100.00;100923.75;5054123;28;20353;-74
2021/05/08 05:21:09;;;;;;;4.55;0.80;;;;;;;16.09;100.00;100935.19;5040866;28;20151;-74
2021/05/08 05:23:55;;;;;;;14.63;0.75;;;;;;;15.81;100.00;100934.44;5039304;28;20082;-74
2021/05/08 05:26:41;;;;;;;23.40;1.33;;;;;;;15.95;100.00;100953.34;5040724;28;20446;-74
2021/05/08 05:29:27;;;;;;;4.07;1.45;;;;;;;16.26;100.00;100959.22;5039587;28;20025;-75
2021/05/08 05:32:12;;;;;;;3.85;1.10;;;;;;;16.09;100.00;100945.75;5041902;28;20025;-74
2021/05/08 05:34:58;;;;;;;6.55;0.90;;;;;;;16.05;100.00;100945.03;5043576;28;20035;-75
2021/05/08 05:37:44;;;;;;;4.00;0.60;;;;;;;15.84;100.00;100952.84;5043331;28;20021;-74
2021/05/08 05:40:29;;;;;;;9.90;0.95;;;;;;;16.08;100.00;100951.97;5043248;28;20164;-74
2021/05/08 05:43:15;;;;;;;7.93;1.00;;;;;;;15.88;100.00;100943.91;5058639;28;20051;-74
2021/05/08 05:46:01;;;;;;;4.38;0.90;;;;;;;16.22;100.00;100962.91;5057647;28;20029;-74
2021/05/08 05:48:47;;;;;;;23.27;2.03;;;;;;;16.37;100.00;100970.28;5043107;28;20021;-75
2021/05/08 05:51:33;;;;;;;4.97;0.80;;;;;;;16.12;100.00;100980.03;5057398;28;20154;-73
2021/05/08 05:54:19;;;;;;;4.10;1.73;;;;;;;16.62;100.00;100984.34;5058241;28;20029;-73
2021/05/08 05:57:05;;;;;;;14.38;1.15;;;;;;;16.46;100.00;100980.53;5043846;28;20099;-74
2021/05/08 05:59:51;;;;;;;2.08;0.60;;;;;;;16.84;100.00;100978.16;5056734;28;20029;-74
2021/05/08 06:02:36;;;;;;;2.78;0.50;;;;;;;16.78;100.00;100980.19;5058473;28;20021;-74
2021/05/08 06:05:22;;;;;;;8.07;1.05;;;;;;;16.80;100.00;100992.44;5056706;28;20032;-74
2021/05/08 06:08:12;;;;;;;7.30;0.63;;;;;;;16.95;100.00;101001.56;5058151;28;20041;-74
2021/05/08 06:10:57;;;;;;;6.55;0.90;;;;;;;16.78;100.00;100996.06;5034590;28;20072;-74
2021/05/08 06:13:43;;;;;;;13.18;0.98;;;;;;;16.88;100.00;100997.44;5023724;28;20029;-73
2021/05/08 06:16:29;;;;;;;8.07;0.70;;;;;;;16.74;100.00;100991.81;5035915;28;20183;-75
2021/05/08 06:19:15;;;;;;;9.05;1.17;;;;;;;16.82;100.00;101002.97;5022158;28;20061;-75
2021/05/08 06:22:00;;;;;;;6.75;0.82;;;;;;;16.89;100.00;101009.75;5038015;28;20053;-75
2021/05/08 06:24:46;;;;;;;6.28;0.80;;;;;;;17.17;100.00;101019.22;5037583;28;20100;-76
2021/05/08 06:27:32;;;;;;;4.82;0.90;;;;;;;17.61;100.00;101033.34;5038227;28;20022;-75
2021/05/08 06:30:18;;;;;;;5.85;0.75;;;;;;;17.31;100.00;101034.53;5023509;28;20036;-75
2021/05/08 06:33:04;;;;;;;8.50;0.95;;;;;;;17.25;100.00;101021.56;5037346;28;20199;-75
2021/05/08 06:35:50;;;;;;;5.28;0.60;;;;;;;17.65;100.00;101025.19;5035683;28;20458;-75
2021/05/08 06:38:35;;;;;;;4.63;0.70;;;;;;;17.37;100.00;101023.72;5021666;28;20030;-75
2021/05/08 06:41:22;;;;;;;1.85;0.70;;;;;;;17.79;100.00;101036.09;5036762;28;20029;-74
2021/05/08 06:44:08;;;;;;;3.22;0.60;;;;;;;17.93;100.00;101051.41;5020107;28;20040;-74
2021/05/08 06:46:57;;;;;;;7.35;0.77;;;;;;;18.12;100.00;101050.56;5034999;28;20457;-74
2021/05/08 06:49:43;;;;;;;5.93;0.70;;;;;;;18.46;100.00;101050.88;5035211;28;20367;-75
2021/05/08 06:52:29;;;;;;;4.50;1.00;;;;;;;18.29;100.00;101065.75;5035241;28;20053;-75
2021/05/08 06:55:14;;;;;;;6.93;1.00;;;;;;;18.33;100.00;101075.31;5034894;28;20071;-74
2021/05/08 06:58:00;;;;;;;6.78;0.90;;;;;;;18.60;100.00;101071.44;5036861;28;20056;-75
2021/05/08 07:00:46;;;;;;;6.60;0.90;;;;;;;18.36;100.00;101078.72;5020905;28;20033;-74
2021/05/08 07:03:32;;;;;;;2.17;0.88;;;;;;;18.86;100.00;101076.47;5036551;28;20060;-75
2021/05/08 07:06:18;;;;;;;2.38;0.90;;;;;;;19.00;100.00;101074.03;5034699;28;20032;-75
2021/05/08 07:09:04;;;;;;;3.28;0.88;;;;;;;18.19;100.00;101083.84;5036708;28;20045;-75
2021/05/08 07:11:50;;;;;;;4.80;0.88;;;;;;;18.47;100.00;101076.47;5050009;28;20049;-75
2021/05/08 07:14:36;;;;;;;4.60;0.77;;;;;;;18.59;100.00;101088.31;5055666;28;20021;-74
2021/05/08 07:17:22;;;;;;;4.10;0.80;;;;;;;18.64;100.00;101073.03;5041872;28;20405;-75
2021/05/08 07:20:08;;;;;;;8.80;0.60;;;;;;;18.96;100.00;101075.97;5042462;28;20500;-74
2021/05/08 07:22:54;;;;;;;8.27;0.85;;;;;;;19.14;100.00;101082.22;5056690;28;20033;-75
2021/05/08 07:25:40;;;;;;;6.30;1.15;;;;;;;19.08;100.00;101090.47;5042305;28;20025;-75
2021/05/08 07:28:26;;;;;;;9.57;1.10;;;;;;;18.76;100.00;101083.09;5055682;28;20024;-76
2021/05/08 07:31:12;;;;;;;4.00;0.88;;;;;;;18.82;100.00;101102.28;5056423;28;20029;-75
2021/05/08 07:33:58;;;;;;;6.70;0.95;;;;;;;18.73;100.00;101101.84;5056178;28;20428;-75
2021/05/08 07:36:43;;;;;;;2.22;0.85;;;;;;;18.70;100.00;101115.25;5055162;28;20029;-75
2021/05/08 07:39:29;;;;;;;6.03;1.15;;;;;;;19.07;100.00;101112.66;5056363;28;20021;-75
2021/05/08 07:42:15;;;;;;;3.83;0.90;;;;;;;18.96;100.00;101122.91;5054876;28;20115;-75
2021/05/08 07:45:01;;;;;;;3.20;0.80;;;;;;;19.15;100.00;101115.81;5041913;28;20128;-75
2021/05/08 07:47:46;;;;;;;4.43;0.80;;;;;;;19.79;100.00;101118.97;5041645;28;20029;-75
2021/05/08 07:50:33;;;;;;;2.20;0.82;;;;;;;19.07;100.00;101112.66;5041883;28;20079;-75
2021/05/08 07:53:18;;;;;;;2.45;0.90;;;;;;;19.20;100.00;101127.97;5041152;28;20365;-74
2021/05/08 07:56:04;;;;;;;2.92;1.00;;;;;;;19.93;99.15;101129.81;5040823;28;20029;-74
2021/05/08 07:58:50;;;;;;;2.97;1.00;;;;;;;19.98;99.35;101141.94;5041552;28;20040;-75
2021/05/08 08:01:36;;;;;;;5.30;0.90;;;;;;;20.78;91.67;101151.16;5056486;28;20091;-75
2021/05/08 08:04:22;;;;;;;4.50;0.73;;;;;;;20.09;96.07;101142.28;5054086;28;20020;-74
2021/05/08 08:07:08;;;;;;;2.42;0.70;;;;;;;20.40;94.92;101137.16;5054748;28;20029;-75
2021/05/08 08:09:53;;;;;;;9.02;1.98;;;;;;;19.95;96.65;101142.09;5055408;28;20147;-75
2021/05/08 08:12:40;;;;;;;1.95;1.00;;;;;;;20.31;94.77;101155.38;5054117;28;20056;-75
2021/05/08 08:15:26;;;;;;;9.13;1.42;;;;;;;19.63;98.13;101161.41;5055256;28;20032;-76
2021/05/08 08:18:12;;;;;;;4.80;1.48;;;;;;;20.18;96.45;101144.50;5054650;28;20044;-76
2021/05/08 08:20:58;;;;;;;4.28;0.98;;;;;;;20.12;95.17;101160.78;5054607;28;20060;-76
2021/05/08 08:23:43;;;;;;;3.58;0.90;;;;;;;20.01;94.69;101152.41;5054016;28;20024;-74
2021/05/08 08:26:29;;;;;;;4.75;1.17;;;;;;;20.26;93.21;101158.31;5055024;28;20025;-74
2021/05/08 08:29:16;;;;;;;2.97;0.70;;;;;;;19.49;97.18;101169.13;5054546;28;20039;-74
2021/05/08 08:32:02;;;;;;;2.80;0.60;;;;;;;19.92;95.32;101165.28;5054719;28;20108;-74
2021/05/08 08:34:48;;;;;;;2.25;0.80;;;;;;;20.38;92.05;101165.66;5054188;28;20115;-74
2021/05/08 08:37:34;;;;;;;1.90;1.00;;;;;;;20.55;89.95;101168.31;5055226;28;20029;-74
2021/05/08 08:40:21;;;;;;;5.53;0.90;;;;;;;20.23;90.54;101173.53;5054541;28;20027;-75
2021/05/08 08:43:07;;;;;;;1.75;0.80;;;;;;;20.17;90.81;101174.69;5053370;28;20029;-75
2021/05/08 08:45:52;;;;;;;6.30;1.00;;;;;;;20.24;92.05;101177.91;5054653;28;20036;-75
2021/05/08 08:48:39;;;;;;;5.00;1.10;;;;;;;20.60;89.30;101162.75;5054448;28;20025;-75
2021/05/08 08:51:25;;;;;;;3.50;1.00;;;;;;;20.97;86.29;101163.44;5054740;28;20017;-76
2021/05/08 08:54:12;;;;;;;2.88;0.98;;;;;;;21.22;82.59;101169.19;5054046;28;20082;-76
2021/05/08 08:57:04;;;;;;;2.55;1.10;;;;;;;21.73;81.61;101160.16;5053506;28;20115;-76
2021/05/08 08:59:51;;;;;;;3.58;0.93;;;;;;;21.33;84.07;101158.81;5053963;28;20166;-75
2021/05/08 09:02:37;;;;;;;3.05;0.95;;;;;;;21.66;83.07;101156.94;5054580;28;20489;-75
2021/05/08 09:05:25;;;;;;;7.40;0.80;;;;;;;22.05;81.62;101154.72;5053238;28;20135;-75
2021/05/08 09:08:12;;;;;;;4.22;1.13;;;;;;;22.25;80.02;101159.75;5056869;28;20024;-75
2021/05/08 09:11:17;;;;;;;2.40;1.10;;;;;;;22.31;79.51;101151.38;5032047;28;720362;-75
2021/05/08 09:14:16;;;;;;;3.92;1.10;;;;;;;22.41;76.09;101154.38;5059410;28;20064;-75
2021/05/08 09:17:10;;;;;;;8.23;1.00;;;;;;;21.86;79.64;101148.69;5058640;28;20040;-74
2021/05/08 09:19:58;;;;;;;5.97;1.30;;;;;;;21.76;81.38;101157.31;5058586;28;20037;-75
2021/05/08 09:22:43;;;;;;;9.13;1.20;;;;;;;21.38;82.82;101147.91;5058090;28;20431;-74
2021/05/08 09:25:30;;;;;;;3.55;1.15;;;;;;;21.07;86.68;101143.38;5057816;28;20037;-75
2021/05/08 09:28:17;;;;;;;4.03;1.20;;;;;;;21.50;82.37;101156.06;5057447;28;20162;-74
2021/05/08 09:31:05;;;;;;;14.00;1.77;;;;;;;21.22;83.21;101163.84;5059721;28;20056;-74
2021/05/08 09:33:52;;;;;;;3.63;1.10;;;;;;;21.03;83.67;101159.59;5045154;28;20095;-75
2021/05/08 09:36:55;;;;;;;5.82;1.23;;;;;;;21.79;80.92;101150.00;5045486;28;20128;-75
2021/05/08 09:39:40;;;;;;;7.40;1.42;;;;;;;21.54;80.35;101154.13;5058248;28;20025;-75
2021/05/08 09:42:42;;;;;;;6.40;1.63;;;;;;;21.24;81.45;101161.09;5058593;28;20362;-75
2021/05/08 09:45:36;;;;;;;6.50;1.30;;;;;;;21.04;82.28;101167.50;5045411;28;20036;-74
2021/05/08 09:48:32;;;;;;;5.32;1.10;;;;;;;21.07;80.92;101171.81;5060166;28;20029;-75
2021/05/08 09:51:29;;;;;;;4.65;1.35;;;;;;;20.96;80.00;101169.72;5059184;28;20028;-75
2021/05/08 09:54:19;;;;;;;8.95;1.55;;;;;;;20.87;81.90;101162.19;5057072;28;20423;-75
2021/05/08 09:57:18;;;;;;;5.65;1.60;;;;;;;20.70;83.05;101175.50;5058560;28;20025;-76
2021/05/08 10:00:33;;;;;;;7.75;1.58;;;;;;;20.29;85.06;101168.75;5058053;28;20036;-75
2021/05/08 10:03:20;;;;;;;3.97;1.60;;;;;;;20.87;82.61;101164.84;5058127;28;20033;-75
2021/05/08 10:06:06;;;;;;;3.15;1.50;;;;;;;20.79;83.03;101167.06;5056668;28;20059;-74
2021/05/08 10:08:52;;;;;;;6.72;1.50;;;;;;;20.97;82.60;101160.78;5057811;28;20445;-74
2021/05/08 10:11:37;;;;;;;5.55;1.55;;;;;;;21.24;80.65;101172.63;5056262;28;20057;-75
2021/05/08 10:14:23;;;;;;;4.47;1.40;;;;;;;20.97;77.19;101160.78;5056574;28;20037;-75
2021/05/08 10:17:14;;;;;;;4.10;1.20;;;;;;;21.09;78.60;101168.13;5057316;28;20236;-75
2021/05/08 10:20:10;;;;;;;7.78;1.60;;;;;;;21.11;80.20;101165.38;5057759;28;20028;-75
2021/05/08 10:23:05;;;;;;;6.90;1.40;;;;;;;20.90;79.66;101158.50;5056263;28;20044;-75
2021/05/08 10:25:52;;;;;;;2.60;1.40;;;;;;;20.93;80.41;101161.03;5058026;28;20062;-75
2021/05/08 10:28:38;;;;;;;4.22;1.35;;;;;;;21.04;79.44;101158.66;5057412;28;20029;-75
2021/05/08 10:31:24;;;;;;;3.33;1.65;;;;;;;21.28;78.48;101160.88;5057730;28;20029;-75
2021/05/08 10:34:10;;;;;;;5.00;1.63;;;;;;;21.69;76.79;101154.09;5042033;28;20021;-75
2021/05/08 10:37:08;;;;;;;6.68;1.48;;;;;;;21.48;75.42;101157.97;5057362;28;20029;-75
2021/05/08 10:40:07;;;;;;;3.25;1.35;;;;;;;20.95;76.76;101143.16;5057361;28;20086;-74
2021/05/08 10:42:52;;;;;;;6.85;1.65;;;;;;;21.39;77.18;101150.50;5042502;28;20029;-75
2021/05/08 10:45:38;;;;;;;7.10;1.52;;;;;;;21.19;77.29;101158.72;5042563;28;20037;-76
2021/05/08 10:48:24;;;;;;;6.97;1.45;;;;;;;21.24;76.21;101156.66;5042042;28;20025;-74
2021/05/08 10:51:10;;;;;;;4.10;1.50;;;;;;;21.24;74.64;101151.31;5056576;28;20040;-74
2021/05/08 10:53:55;;;;;;;3.47;1.55;;;;;;;21.09;72.75;101156.63;5055588;28;20342;-74
2021/05/08 10:56:41;;;;;;;4.68;1.38;;;;;;;20.99;71.20;101155.38;5056605;28;20267;-74
2021/05/08 10:59:27;;;;;;;3.50;1.20;;;;;;;21.56;70.28;101158.41;5056606;28;20025;-75
2021/05/08 11:02:44;;;;;;;3.30;1.38;;;;;;;21.74;70.59;101159.22;5056081;28;20095;-75
2021/05/08 11:05:39;;;;;;;3.85;1.30;;;;;;;21.43;70.08;101145.84;5056726;28;20016;-74
2021/05/08 11:08:24;;;;;;;7.80;1.42;;;;;;;21.58;70.65;101161.00;5056472;28;20044;-74
2021/05/08 11:11:17;;;;;;;7.10;1.77;;;;;;;21.56;67.06;101158.41;5055122;28;20080;-74
2021/05/08 11:14:03;;;;;;;6.65;1.30;;;;;;;22.10;64.63;101160.63;5057305;28;20024;-74
2021/05/08 11:16:57;;;;;;;4.18;1.20;;;;;;;21.88;64.45;101153.94;5056435;28;20027;-76
2021/05/08 11:19:43;;;;;;;5.43;1.35;;;;;;;21.95;63.61;101142.84;5057313;28;20025;-75
2021/05/08 11:22:32;;;;;;;2.95;1.50;;;;;;;22.14;62.25;101134.66;5041240;28;20040;-74
2021/05/08 11:25:33;;;;;;;5.00;1.60;;;;;;;22.06;63.68;101136.91;5055948;28;20484;-74
2021/05/08 11:28:19;;;;;;;3.70;1.25;;;;;;;22.95;61.84;101143.06;5056671;28;20352;-74
2021/05/08 11:31:05;;;;;;;5.00;1.40;;;;;;;22.87;61.73;101142.69;5055871;28;20029;-74
2021/05/08 11:33:51;;;;;;;5.25;1.75;;;;;;;22.98;59.74;101138.38;5056296;28;20025;-74
2021/05/08 11:36:48;;;;;;;2.78;1.80;;;;;;;23.04;59.54;101137.16;5056230;28;20040;-75
2021/05/08 11:39:36;;;;;;;2.75;1.65;;;;;;;23.62;57.60;101132.53;5056967;28;20020;-75
2021/05/08 11:42:25;;;;;;;7.30;1.70;;;;;;;23.55;57.00;101135.69;5041725;28;20039;-74
2021/05/08 11:45:12;;;;;;;3.33;1.55;;;;;;;24.16;54.91;101125.41;5056896;28;20021;-75
2021/05/08 11:48:06;;;;;;;15.85;10.80;;;;;;;23.85;53.58;101126.53;5055409;28;20342;-75
2021/05/08 11:50:57;;;;;;;5.47;1.38;;;;;;;23.43;54.31;101124.81;5054932;28;20102;-74
2021/05/08 11:53:43;;;;;;;4.38;1.25;;;;;;;22.80;55.68;101120.81;5055884;28;20029;-74
2021/05/08 11:56:33;;;;;;;3.17;1.17;;;;;;;23.16;54.63;101113.16;5055741;28;20043;-74
2021/05/08 11:59:34;;;;;;;3.75;1.20;;;;;;;23.52;54.09;101122.50;5054918;28;20112;-75
2021/05/08 12:02:23;;;;;;;1.10;1.00;;;;;;;23.46;52.66;101131.78;5040829;28;20025;-75
2021/05/08 12:05:09;;;;;;;2.28;1.20;;;;;;;23.45;52.75;101135.44;5055447;28;20086;-75
2021/05/08 12:07:56;;;;;;;4.90;1.30;;;;;;;23.81;51.65;101121.47;5056429;28;20021;-75
2021/05/08 12:10:44;;;;;;;3.55;1.13;;;;;;;22.90;52.55;101121.97;5055261;28;20120;-74
2021/05/08 12:13:31;;;;;;;4.75;1.20;;;;;;;22.85;53.74;101125.88;5054517;28;20098;-76
2021/05/08 12:16:17;;;;;;;5.75;1.58;;;;;;;22.54;54.12;101124.19;5053556;28;20025;-76
2021/05/08 12:19:03;;;;;;;2.97;1.20;;;;;;;22.70;53.52;101122.31;5055571;28;20470;-74
2021/05/08 12:21:49;;;;;;;2.75;1.20;;;;;;;22.77;53.87;101115.66;5055744;28;20068;-74
2021/05/08 12:24:35;;;;;;;10.75;1.38;;;;;;;22.51;54.79;101107.50;5054837;28;20021;-75
2021/05/08 12:27:21;;;;;;;7.15;1.40;;;;;;;22.68;54.56;101121.56;5055564;28;20108;-75
2021/05/08 12:30:08;;;;;;;7.00;1.35;;;;;;;22.08;54.28;101116.31;5054117;28;20464;-75
2021/05/08 12:32:54;;;;;;;13.73;1.60;;;;;;;21.90;54.53;101106.72;5056566;28;20052;-75
2021/05/08 12:35:40;;;;;;;2.35;1.50;;;;;;;22.46;54.92;101109.53;5054678;28;20017;-75
2021/05/08 12:38:27;;;;;;;2.88;1.02;;;;;;;22.37;54.80;101121.66;5055610;28;20124;-73
2021/05/08 12:41:29;;;;;;;2.13;1.13;;;;;;;22.04;53.61;101107.63;5054360;28;20021;-76
2021/05/08 12:44:15;;;;;;;2.72;1.20;;;;;;;22.48;53.66;101118.38;5056074;28;20036;-75
2021/05/08 12:47:18;;;;;;;2.03;1.30;;;;;;;22.28;52.81;101110.66;5055117;28;20025;-75
2021/05/08 12:50:07;;;;;;;1.70;1.13;;;;;;;22.69;51.97;101114.41;5055565;28;20108;-75
2021/05/08 12:52:57;;;;;;;2.38;1.02;;;;;;;22.84;51.47;101100.97;5040307;28;20025;-74